TimeEST,TemperatureF,Dew PointF,Humidity,Sea Level PressureIn,VisibilityMPH,Wind Direction,Wind SpeedMPH,Gust SpeedMPH,PrecipitationIn,Events,Conditions,WindDirDegrees,DateUTC
12:27 AM,37.4,33.8,87,29.53,10.0,SE,17.3,25.3,0.00,Rain,Light Rain,130,2013-02-27 05:27:00
12:51 AM,36.0,33.1,89,29.56,10.0,SE,16.1,-,0.00,Rain,Light Rain,130,2013-02-27 05:51:00
1:51 AM,37.0,33.1,86,29.55,10.0,SE,13.8,-,0.00,,Overcast,130,2013-02-27 06:51:00
2:16 AM,35.6,33.8,93,29.52,6.0,SE,11.5,19.6,0.00,Rain,Light Rain,130,2013-02-27 07:16:00
2:51 AM,36.0,34.0,93,29.55,9.0,SE,16.1,20.7,0.00,Rain,Light Rain,130,2013-02-27 07:51:00
3:51 AM,36.0,34.0,93,29.54,10.0,ESE,11.5,-,0.00,Rain,Light Rain,120,2013-02-27 08:51:00
3:54 AM,35.6,33.8,93,29.51,8.0,ESE,11.5,-,0.00,Rain,Light Rain,120,2013-02-27 08:54:00
4:19 AM,35.6,33.8,93,29.51,6.0,ESE,12.7,-,0.01,Rain,Light Rain,120,2013-02-27 09:19:00
4:51 AM,36.0,34.0,93,29.54,8.0,SE,11.5,-,0.04,Rain,Light Rain,130,2013-02-27 09:51:00
5:51 AM,36.0,35.1,97,29.55,8.0,SSE,8.1,-,0.05,Rain,Light Rain,150,2013-02-27 10:51:00
6:51 AM,37.0,35.1,93,29.56,5.0,Calm,Calm,-,0.05,Rain,Light Rain,0,2013-02-27 11:51:00
7:10 AM,37.4,35.6,93,29.54,7.0,Variable,4.6,-,0.01,Rain,Light Rain,0,2013-02-27 12:10:00
7:28 AM,37.4,35.6,93,29.54,6.0,SSW,8.1,-,0.03,Rain,Light Rain,200,2013-02-27 12:28:00
7:51 AM,37.0,35.1,93,29.58,5.0,SSW,10.4,-,0.04,Rain,Light Rain,210,2013-02-27 12:51:00
8:51 AM,36.0,34.0,93,29.60,10.0,SW,8.1,-,0.01,Rain,Light Rain,220,2013-02-27 13:51:00
9:51 AM,37.0,35.1,93,29.60,10.0,SSW,10.4,-,0.00,,Overcast,210,2013-02-27 14:51:00
10:51 AM,37.9,36.0,93,29.62,7.0,SW,11.5,-,N/A,,Overcast,230,2013-02-27 15:51:00
11:23 AM,39.2,35.6,87,29.59,10.0,SW,8.1,-,N/A,,Overcast,220,2013-02-27 16:23:00
11:35 AM,41.0,35.6,81,29.58,10.0,SW,9.2,-,N/A,,Overcast,230,2013-02-27 16:35:00
11:51 AM,42.1,37.0,82,29.61,10.0,SW,8.1,-,N/A,,Overcast,220,2013-02-27 16:51:00
12:51 PM,41.0,35.1,79,29.61,10.0,SSW,12.7,-,N/A,,Overcast,210,2013-02-27 17:51:00
1:38 PM,39.2,33.8,81,29.59,10.0,SW,12.7,-,N/A,,Overcast,230,2013-02-27 18:38:00
1:51 PM,39.0,34.0,82,29.62,10.0,SW,10.4,-,N/A,,Overcast,230,2013-02-27 18:51:00
2:51 PM,39.9,35.1,83,29.61,10.0,SSW,8.1,-,N/A,,Overcast,210,2013-02-27 19:51:00
3:31 PM,39.2,33.8,81,29.59,10.0,SSW,6.9,-,N/A,,Overcast,210,2013-02-27 20:31:00
3:51 PM,39.9,34.0,79,29.62,10.0,SSW,5.8,-,0.00,Rain,Light Rain,210,2013-02-27 20:51:00
4:51 PM,39.0,34.0,82,29.62,7.0,WSW,11.5,-,0.01,Rain,Light Rain,240,2013-02-27 21:51:00
5:36 PM,37.4,33.8,87,29.61,5.0,SW,17.3,28.8,0.01,Rain,Light Rain,230,2013-02-27 22:36:00
5:51 PM,36.0,33.1,89,29.64,5.0,WSW,13.8,-,0.01,Rain,Light Rain,240,2013-02-27 22:51:00
6:51 PM,35.1,32.0,89,29.65,10.0,SW,12.7,-,0.00,Rain,Light Rain,230,2013-02-27 23:51:00
7:39 PM,33.8,32.0,93,29.63,8.0,SW,8.1,-,0.00,Rain,Light Rain,230,2013-02-28 00:39:00
7:51 PM,34.0,30.9,89,29.66,2.0,SW,11.5,-,0.01,Rain-Snow,Light Rain,230,2013-02-28 00:51:00
8:51 PM,34.0,32.0,92,29.65,7.0,SSW,6.9,-,0.00,Rain-Snow,Light Rain,210,2013-02-28 01:51:00
9:51 PM,33.1,30.0,89,29.65,3.0,SW,11.5,-,0.00,Snow,Light Snow,230,2013-02-28 02:51:00
10:51 PM,32.0,30.0,92,29.64,3.0,SW,8.1,-,0.01,Snow,Light Snow,220,2013-02-28 03:51:00
11:28 PM,33.8,30.2,87,29.60,5.0,SW,9.2,-,N/A,Snow,Light Snow,220,2013-02-28 04:28:00
11:51 PM,33.1,30.0,89,29.62,5.0,SW,8.1,-,0.00,Snow,Light Snow,220,2013-02-28 04:51:00